APL Norway — A8NC4 — position and weather

sailwx.info

Track history (hours):
 
Tides and Currents Weather Stations Pressure Air Temp Water Temp Dewpoint Dewpoint Depression Visibility Wind Speed Wind Dir Waves Ship Positions

APL Norway

Last reported at 2014-Aug-30 08:33 UTC. Time now 2014-Sep-02 21:33 UTC.
Position N 35°21' E 140°55'.

Length 295 m; draft 11.9 m.

Type: Cargo ship. MMSI: 636013456.

Date/timePositionNaut miles runAvg speedWind from/ knotsBaromVisibWave heightAir tempDewpointWater temp
2014-Aug-30 08:33N 35°21' E 140°55'1818.3
2014-Aug-30 07:33N 35°11' E 140°37'1717.2
2014-Aug-30 06:33N 35°01' E 140°19'1717.5
2014-Aug-30 05:33N 34°52' E 140°01'1817.7
2014-Aug-30 04:33N 34°44' E 139°42'  
2014-Aug-27 11:27N 24°08' E 120°01'2220.8
2014-Aug-27 10:23N 23°47' E 119°57'1720.2
2014-Aug-27 09:33N 23°30' E 119°55'3817.7
2014-Aug-27 07:23N 22°52' E 119°60'1416.9
2014-Aug-27 06:33N 22°40' E 120°09'1212.1
2014-Aug-27 05:33N 22°33' E 120°20'0 0.5
2014-Aug-27 04:33N 22°34' E 120°19'0 0.0
2014-Aug-27 03:33N 22°34' E 120°19'0 0.0
2014-Aug-27 02:33N 22°34' E 120°19'0 0.0
2014-Aug-27 01:33N 22°34' E 120°19'0 0.0
2014-Aug-27 00:33N 22°34' E 120°19'0 0.0
2014-Aug-26 23:33N 22°34' E 120°19'0 0.0
2014-Aug-26 22:33N 22°34' E 120°19'0 0.0
2014-Aug-26 21:33N 22°34' E 120°19'0 0.0
2014-Aug-26 20:33N 22°34' E 120°19'0 0.0
2014-Aug-26 18:33N 22°34' E 120°19'0 0.0
2014-Aug-26 17:33N 22°34' E 120°19'0 0.0
2014-Aug-26 16:33N 22°34' E 120°19'0 0.0
2014-Aug-26 15:33N 22°34' E 120°19'0 0.0
2014-Aug-26 14:33N 22°34' E 120°19'2 2.3
2014-Aug-26 13:33N 22°33' E 120°17'9 9.2
2014-Aug-26 12:34N 22°31' E 120°07'1313.0
2014-Aug-26 11:33N 22°30' E 119°53'1312.8
2014-Aug-26 10:32N 22°29' E 119°39'31814.2
2014-Aug-25 12:03N 22°22' E 113°55'5 9.3
2014-Aug-25 11:33N 22°26' E 113°53'2 0.8
2014-Aug-25 09:10N 22°28' E 113°53'0 0.0
2014-Aug-25 08:31N 22°28' E 113°53'0 0.0
2014-Aug-25 07:10N 22°28' E 113°53'0 0.0
2014-Aug-25 05:10N 22°28' E 113°53'0 0.0
2014-Aug-25 04:04N 22°28' E 113°53'0 0.0
2014-Aug-25 03:10N 22°28' E 113°53'0 0.0
2014-Aug-25 01:16N 22°28' E 113°53'0 0.0
2014-Aug-24 23:25N 22°28' E 113°53'0 0.0
2014-Aug-24 20:15N 22°28' E 113°53'0 0.0
2014-Aug-24 19:31N 22°28' E 113°53'3 3.6
2014-Aug-24 18:34N 22°25' E 113°53'12 8.8
2014-Aug-24 17:14N 22°20' E 114°05'1110.5
2014-Aug-24 16:13N 22°11' E 114°12'  
2014-Aug-21 11:06N 01°15' E 104°07'1017.8
2014-Aug-21 10:33N 01°14' E 103°58'7 7.3
2014-Aug-21 09:33N 01°15' E 103°51'1 0.5
2014-Aug-21 08:31N 01°16' E 103°50'0 0.0
2014-Aug-21 07:07N 01°16' E 103°50'0 0.1
2014-Aug-21 06:31N 01°16' E 103°50'0 0.1
2014-Aug-21 05:31N 01°16' E 103°50'0 0.1
2014-Aug-21 04:31N 01°16' E 103°50'0 0.1
2014-Aug-21 03:31N 01°16' E 103°50'0 0.0
2014-Aug-21 02:31N 01°16' E 103°50'0 0.0
2014-Aug-21 01:31N 01°16' E 103°50'0 0.0
2014-Aug-21 00:31N 01°16' E 103°50'0 0.0
2014-Aug-20 23:31N 01°16' E 103°50'0 0.0
2014-Aug-20 22:31N 01°16' E 103°50'0 0.0
2014-Aug-20 21:31N 01°16' E 103°50'0 0.0
2014-Aug-20 20:31N 01°16' E 103°50'0 0.0
2014-Aug-20 19:31N 01°16' E 103°50'0 0.0
2014-Aug-20 18:31N 01°16' E 103°50'0 0.0
2014-Aug-20 17:25N 01°16' E 103°50'0 0.0
2014-Aug-20 16:31N 01°16' E 103°50'0 0.0
2014-Aug-20 15:28N 01°16' E 103°50'0 0.0
2014-Aug-20 14:31N 01°16' E 103°50'0 0.1
2014-Aug-20 13:28N 01°16' E 103°50'0 0.1
2014-Aug-20 12:28N 01°16' E 103°50'0 0.0
2014-Aug-20 11:31N 01°16' E 103°50'0 0.0
2014-Aug-20 10:13N 01°16' E 103°50'0 0.0
2014-Aug-20 09:31N 01°16' E 103°50'  
Track history (hours):
 
Tides and Currents Weather Stations Pressure Air Temp Water Temp Dewpoint Dewpoint Depression Visibility Wind Speed Wind Dir Waves Ship Positions

APL Norway

Last reported at 2014-Aug-30 08:33 UTC. Time now 2014-Sep-02 21:33 UTC.
Position N 35°21' E 140°55'.

Length 295 m; draft 11.9 m.

Type: Cargo ship. MMSI: 636013456.

Date/timePositionNaut miles runAvg speedWind from/ knotsBaromVisibWave heightAir tempDewpointWater temp
2014-Aug-30 08:33N 35°21' E 140°55'1818.3
2014-Aug-30 07:33N 35°11' E 140°37'1717.2
2014-Aug-30 06:33N 35°01' E 140°19'1717.5
2014-Aug-30 05:33N 34°52' E 140°01'1817.7
2014-Aug-30 04:33N 34°44' E 139°42'  
2014-Aug-27 11:27N 24°08' E 120°01'2220.8
2014-Aug-27 10:23N 23°47' E 119°57'1720.2
2014-Aug-27 09:33N 23°30' E 119°55'3817.7
2014-Aug-27 07:23N 22°52' E 119°60'1416.9
2014-Aug-27 06:33N 22°40' E 120°09'1212.1
2014-Aug-27 05:33N 22°33' E 120°20'0 0.5
2014-Aug-27 04:33N 22°34' E 120°19'0 0.0
2014-Aug-27 03:33N 22°34' E 120°19'0 0.0
2014-Aug-27 02:33N 22°34' E 120°19'0 0.0
2014-Aug-27 01:33N 22°34' E 120°19'0 0.0
2014-Aug-27 00:33N 22°34' E 120°19'0 0.0
2014-Aug-26 23:33N 22°34' E 120°19'0 0.0
2014-Aug-26 22:33N 22°34' E 120°19'0 0.0
2014-Aug-26 21:33N 22°34' E 120°19'0 0.0
2014-Aug-26 20:33N 22°34' E 120°19'0 0.0
2014-Aug-26 18:33N 22°34' E 120°19'0 0.0
2014-Aug-26 17:33N 22°34' E 120°19'0 0.0
2014-Aug-26 16:33N 22°34' E 120°19'0 0.0
2014-Aug-26 15:33N 22°34' E 120°19'0 0.0
2014-Aug-26 14:33N 22°34' E 120°19'2 2.3
2014-Aug-26 13:33N 22°33' E 120°17'9 9.2
2014-Aug-26 12:34N 22°31' E 120°07'1313.0
2014-Aug-26 11:33N 22°30' E 119°53'1312.8
2014-Aug-26 10:32N 22°29' E 119°39'31814.2
2014-Aug-25 12:03N 22°22' E 113°55'5 9.3
2014-Aug-25 11:33N 22°26' E 113°53'2 0.8
2014-Aug-25 09:10N 22°28' E 113°53'0 0.0
2014-Aug-25 08:31N 22°28' E 113°53'0 0.0
2014-Aug-25 07:10N 22°28' E 113°53'0 0.0
2014-Aug-25 05:10N 22°28' E 113°53'0 0.0
2014-Aug-25 04:04N 22°28' E 113°53'0 0.0
2014-Aug-25 03:10N 22°28' E 113°53'0 0.0
2014-Aug-25 01:16N 22°28' E 113°53'0 0.0
2014-Aug-24 23:25N 22°28' E 113°53'0 0.0
2014-Aug-24 20:15N 22°28' E 113°53'0 0.0
2014-Aug-24 19:31N 22°28' E 113°53'3 3.6
2014-Aug-24 18:34N 22°25' E 113°53'12 8.8
2014-Aug-24 17:14N 22°20' E 114°05'1110.5
2014-Aug-24 16:13N 22°11' E 114°12'  
2014-Aug-21 11:06N 01°15' E 104°07'1017.8
2014-Aug-21 10:33N 01°14' E 103°58'7 7.3
2014-Aug-21 09:33N 01°15' E 103°51'1 0.5
2014-Aug-21 08:31N 01°16' E 103°50'0 0.0
2014-Aug-21 07:07N 01°16' E 103°50'0 0.1
2014-Aug-21 06:31N 01°16' E 103°50'0 0.1
2014-Aug-21 05:31N 01°16' E 103°50'0 0.1
2014-Aug-21 04:31N 01°16' E 103°50'0 0.1
2014-Aug-21 03:31N 01°16' E 103°50'0 0.0
2014-Aug-21 02:31N 01°16' E 103°50'0 0.0
2014-Aug-21 01:31N 01°16' E 103°50'0 0.0
2014-Aug-21 00:31N 01°16' E 103°50'0 0.0
2014-Aug-20 23:31N 01°16' E 103°50'0 0.0
2014-Aug-20 22:31N 01°16' E 103°50'0 0.0
2014-Aug-20 21:31N 01°16' E 103°50'0 0.0
2014-Aug-20 20:31N 01°16' E 103°50'0 0.0
2014-Aug-20 19:31N 01°16' E 103°50'0 0.0
2014-Aug-20 18:31N 01°16' E 103°50'0 0.0
2014-Aug-20 17:25N 01°16' E 103°50'0 0.0
2014-Aug-20 16:31N 01°16' E 103°50'0 0.0
2014-Aug-20 15:28N 01°16' E 103°50'0 0.0
2014-Aug-20 14:31N 01°16' E 103°50'0 0.1
2014-Aug-20 13:28N 01°16' E 103°50'0 0.1
2014-Aug-20 12:28N 01°16' E 103°50'0 0.0
2014-Aug-20 11:31N 01°16' E 103°50'0 0.0
2014-Aug-20 10:13N 01°16' E 103°50'0 0.0
2014-Aug-20 09:31N 01°16' E 103°50'  

Dump ship's entire track history